This is the latest recevied weather packets stored in our database for station/object OH2EGI-2. If no packets are shown the sender has not sent any weather packets the latest 1 day(s).
| Time | Temp. | Humidity | Pressure | Rain* | Wind** | Luminosity | Snow |
|---|---|---|---|---|---|---|---|
| 1778054792 | 14.44° C | 33% | 1004.7 hPa | 0 mm | - | - | - |
| 1778054492 | 14.44° C | 33% | 1004.8 hPa | 0 mm | - | - | - |
| 1778054192 | 15° C | 32% | 1004.8 hPa | 0 mm | - | - | - |
| 1778053892 | 15° C | 34% | 1004.6 hPa | 0 mm | - | - | - |
| 1778053592 | 14.44° C | 35% | 1004.6 hPa | 0 mm | - | - | - |
| 1778053292 | 14.44° C | 35% | 1004.5 hPa | 0 mm | - | - | - |
| 1778052992 | 14.44° C | 35% | 1004.7 hPa | 0 mm | - | - | - |
| 1778052392 | 14.44° C | 36% | 1004.4 hPa | 0 mm | - | - | - |
| 1778052092 | 14.44° C | 35% | 1004.4 hPa | 0 mm | - | - | - |
| 1778051792 | 14.44° C | 35% | 1004.4 hPa | 0 mm | - | - | - |
| 1778051492 | 15° C | 36% | 1004.5 hPa | 0 mm | - | - | - |
| 1778050592 | 15.56° C | 38% | 1004.4 hPa | 0 mm | - | - | - |
| 1778048792 | 15° C | 40% | 1004.3 hPa | 0 mm | - | - | - |
| 1778047592 | 15° C | 44% | 1004.1 hPa | 0 mm | - | - | - |
| 1778046992 | 14.44° C | 47% | 1003.8 hPa | 0 mm | - | - | - |
| 1778046692 | 14.44° C | 48% | 1003.9 hPa | 0 mm | - | - | - |
| 1778046092 | 13.89° C | 53% | 1003.7 hPa | 0 mm | - | - | - |
| 1778044293 | 5.56° C | 71% | 1003.3 hPa | 0 mm | - | - | - |
| 1778043692 | 4.44° C | 72% | 1003.5 hPa | 0 mm | - | - | - |
| 1778043393 | 3.89° C | 73% | 1003.3 hPa | 0 mm | - | - | - |
| 1778043093 | 3.89° C | 73% | 1003.2 hPa | 0 mm | - | - | - |
| 1778042793 | 3.89° C | 74% | 1003.2 hPa | 0 mm | - | - | - |
| 1778042493 | 3.33° C | 74% | 1003.1 hPa | 0 mm | - | - | - |
| 1778042193 | 3.33° C | 75% | 1003.1 hPa | 0 mm | - | - | - |
| 1778041893 | 2.78° C | 75% | 1003.1 hPa | 0 mm | - | - | - |
* Rain latest hour (hover to see other rain measurements)
** Current wind speed in m/s (hover to see current wind gust speed)